Time;durP1;ratioP1;P1;durP2;ratioP2;P2;SDS_P1;SDS_P2;PMS_P1;PMS_P2;Temp;Humidity;BMP_temperature;BMP_pressure;BME280_temperature;BME280_humidity;BME280_pressure;Samples;Min_cycle;Max_cycle;Signal;HPM_P1;HPM_P2
2021/09/17 00:00:10;;;;;;;25.93;16.27;;;15.50;99.90;;;;;;5072575;28;20182;-79
2021/09/17 00:02:39;;;;;;;22.93;15.87;;;15.60;99.90;;;;;;5071906;28;20180;-80
2021/09/17 00:05:06;;;;;;;22.80;15.23;;;15.60;99.90;;;;;;5094641;28;20175;-79
2021/09/17 00:07:32;;;;;;;26.17;16.10;;;15.60;99.90;;;;;;5075671;28;20301;-78
2021/09/17 00:09:58;;;;;;;26.63;15.47;;;15.60;99.90;;;;;;5075972;28;20187;-78
2021/09/17 00:12:24;;;;;;;26.80;16.53;;;15.70;99.90;;;;;;5091661;28;20208;-78
2021/09/17 00:14:50;;;;;;;23.43;15.70;;;15.70;99.90;;;;;;5088116;28;20188;-78
2021/09/17 00:17:16;;;;;;;23.20;16.10;;;15.70;99.90;;;;;;5057612;28;20191;-79
2021/09/17 00:19:41;;;;;;;23.53;15.90;;;15.70;99.90;;;;;;5095802;28;20182;-78
2021/09/17 00:22:07;;;;;;;25.27;16.90;;;15.60;99.90;;;;;;5071227;28;20250;-79
2021/09/17 00:24:33;;;;;;;25.83;15.97;;;15.50;99.90;;;;;;5088964;28;20266;-78
2021/09/17 00:26:59;;;;;;;22.63;15.77;;;15.50;99.90;;;;;;5089083;28;20184;-79
2021/09/17 00:29:26;;;;;;;23.90;14.93;;;15.40;99.90;;;;;;5078205;28;20199;-79
2021/09/17 00:31:52;;;;;;;22.33;15.83;;;15.40;99.90;;;;;;5071060;28;20279;-79
2021/09/17 00:34:18;;;;;;;22.03;15.90;;;15.40;99.90;;;;;;5098267;28;20349;-79
2021/09/17 00:36:43;;;;;;;22.57;16.03;;;15.40;99.90;;;;;;5090719;28;20347;-79
2021/09/17 00:39:13;;;;;;;25.33;16.23;;;15.40;99.90;;;;;;5091074;28;20582;-79
2021/09/17 00:41:40;;;;;;;25.17;16.30;;;15.40;99.90;;;;;;5094728;28;20176;-78
2021/09/17 00:44:06;;;;;;;22.83;15.50;;;15.50;99.90;;;;;;5089682;28;20291;-79
2021/09/17 00:46:32;;;;;;;26.40;18.40;;;15.50;99.90;;;;;;5077845;28;20275;-78
2021/09/17 00:48:57;;;;;;;25.57;17.33;;;15.50;99.90;;;;;;5075956;28;20201;-79
2021/09/17 00:51:23;;;;;;;28.17;18.77;;;15.60;99.90;;;;;;5082439;28;20238;-78
2021/09/17 00:53:49;;;;;;;27.73;18.90;;;15.70;99.90;;;;;;5070616;28;20589;-78
2021/09/17 00:56:16;;;;;;;25.93;17.80;;;15.70;99.90;;;;;;5069251;28;20229;-79
2021/09/17 00:58:42;;;;;;;29.00;18.90;;;15.60;99.90;;;;;;5076315;28;20188;-78
2021/09/17 01:01:08;;;;;;;28.40;19.00;;;15.50;99.90;;;;;;5072600;28;20636;-78
2021/09/17 01:03:34;;;;;;;29.80;18.93;;;15.50;99.90;;;;;;5069819;28;21001;-78
2021/09/17 01:06:02;;;;;;;31.97;19.73;;;15.50;99.90;;;;;;5090889;28;20268;-78
2021/09/17 01:08:31;;;;;;;28.33;18.63;;;15.50;99.90;;;;;;5058397;28;20716;-78
2021/09/17 01:11:01;;;;;;;30.40;20.20;;;15.50;99.90;;;;;;5091025;28;20179;-78
2021/09/17 01:13:28;;;;;;;30.10;20.07;;;15.50;99.90;;;;;;5057356;28;20276;-78
2021/09/17 01:15:53;;;;;;;28.90;19.40;;;15.50;99.90;;;;;;5087639;28;20187;-79
2021/09/17 01:18:19;;;;;;;26.33;18.70;;;15.50;99.90;;;;;;5074324;28;20179;-77
2021/09/17 01:20:45;;;;;;;26.60;18.93;;;15.50;99.90;;;;;;5056209;28;20173;-76
2021/09/17 01:23:11;;;;;;;29.97;20.13;;;15.40;99.90;;;;;;5076288;28;20551;-76
2021/09/17 01:25:36;;;;;;;22.43;16.13;;;15.40;99.90;;;;;;5073074;28;20663;-77
2021/09/17 01:28:04;;;;;;;20.43;14.30;;;15.30;99.90;;;;;;5090635;28;20184;-77
2021/09/17 01:30:30;;;;;;;19.13;13.47;;;15.30;99.90;;;;;;5074631;28;20349;-77
2021/09/17 01:32:56;;;;;;;26.97;14.43;;;15.10;99.90;;;;;;5083861;28;20202;-78
2021/09/17 01:35:23;;;;;;;24.47;15.70;;;15.10;99.90;;;;;;5079763;28;20254;-77
2021/09/17 01:37:50;;;;;;;33.17;20.10;;;15.10;99.90;;;;;;5087481;28;20234;-77
2021/09/17 01:40:16;;;;;;;34.60;21.50;;;15.20;99.90;;;;;;5070022;28;20191;-77
2021/09/17 01:42:43;;;;;;;32.03;21.70;;;15.30;99.90;;;;;;5072571;28;20207;-77
2021/09/17 01:45:10;;;;;;;31.77;21.47;;;15.30;99.90;;;;;;5059084;28;20188;-77
2021/09/17 01:47:35;;;;;;;32.57;20.97;;;15.30;99.90;;;;;;5090626;28;20287;-77
2021/09/17 01:50:02;;;;;;;32.47;23.03;;;15.30;99.90;;;;;;5098660;28;20270;-77
2021/09/17 01:52:28;;;;;;;37.50;24.83;;;15.30;99.90;;;;;;5094105;28;20229;-79
2021/09/17 01:54:53;;;;;;;35.30;24.30;;;15.40;99.90;;;;;;5064031;28;20172;-77
2021/09/17 01:57:19;;;;;;;37.47;24.27;;;15.50;99.90;;;;;;5070376;28;20208;-78
2021/09/17 01:59:45;;;;;;;39.93;25.93;;;15.50;99.90;;;;;;5062062;28;20177;-77
2021/09/17 02:02:11;;;;;;;35.57;25.10;;;15.50;99.90;;;;;;5094610;28;20184;-77
2021/09/17 02:04:37;;;;;;;41.00;26.90;;;15.50;99.90;;;;;;5094055;28;20207;-79
2021/09/17 02:07:03;;;;;;;40.73;26.33;;;15.50;99.90;;;;;;5097113;28;20701;-77
2021/09/17 02:09:28;;;;;;;45.43;29.57;;;15.50;99.90;;;;;;5075251;28;20181;-77
2021/09/17 02:11:54;;;;;;;46.60;29.83;;;15.40;99.90;;;;;;5093346;28;20197;-77
2021/09/17 02:14:20;;;;;;;40.57;27.50;;;15.50;99.90;;;;;;5093920;28;20189;-79
2021/09/17 02:16:45;;;;;;;41.43;27.80;;;15.50;99.90;;;;;;5099693;28;20196;-79
2021/09/17 02:19:11;;;;;;;43.90;28.37;;;15.40;99.90;;;;;;5075182;28;20174;-77
2021/09/17 02:21:40;;;;;;;41.97;26.73;;;15.30;99.90;;;;;;5061737;28;20553;-77
2021/09/17 02:24:07;;;;;;;44.73;28.60;;;15.30;99.90;;;;;;5076815;28;20212;-77
2021/09/17 02:26:33;;;;;;;41.57;27.87;;;15.30;99.90;;;;;;5093979;28;20191;-80
2021/09/17 02:28:59;;;;;;;44.17;28.20;;;15.20;99.90;;;;;;5102096;28;20189;-80
2021/09/17 02:31:25;;;;;;;42.80;28.77;;;15.20;99.90;;;;;;5094614;28;20244;-78
2021/09/17 02:33:51;;;;;;;46.83;29.37;;;15.30;99.90;;;;;;5068579;28;20205;-78
2021/09/17 02:36:16;;;;;;;47.30;31.10;;;15.30;99.90;;;;;;5096587;28;20180;-78
2021/09/17 02:38:42;;;;;;;45.87;31.43;;;15.30;99.90;;;;;;5068155;28;20182;-77
2021/09/17 02:41:08;;;;;;;49.13;32.77;;;15.30;99.90;;;;;;5099878;28;20187;-78
2021/09/17 02:43:34;;;;;;;51.93;32.37;;;15.30;99.90;;;;;;5077590;28;20576;-78
2021/09/17 02:46:00;;;;;;;52.97;33.43;;;15.30;99.90;;;;;;5082255;28;20215;-78
2021/09/17 02:48:27;;;;;;;58.53;34.13;;;15.30;99.90;;;;;;5073495;28;20215;-77
2021/09/17 02:50:53;;;;;;;50.57;31.13;;;15.30;99.90;;;;;;5072779;28;20550;-77
2021/09/17 02:53:19;;;;;;;56.53;33.97;;;15.30;99.90;;;;;;5076191;28;20203;-78
2021/09/17 02:55:45;;;;;;;51.60;31.13;;;15.30;99.90;;;;;;5058507;28;20226;-78
2021/09/17 02:58:12;;;;;;;54.53;34.33;;;15.30;99.90;;;;;;5084711;28;20203;-78
2021/09/17 03:00:39;;;;;;;60.27;35.60;;;15.30;99.90;;;;;;5079417;28;20175;-78
2021/09/17 03:03:06;;;;;;;55.53;34.83;;;15.40;99.90;;;;;;5091328;28;20175;-78
2021/09/17 03:05:32;;;;;;;59.90;35.97;;;15.30;99.90;;;;;;5093451;28;20274;-78
2021/09/17 03:07:57;;;;;;;62.67;37.80;;;15.30;99.90;;;;;;5076055;28;20308;-78
2021/09/17 03:10:23;;;;;;;71.97;39.57;;;15.30;99.90;;;;;;5099162;28;20185;-77
2021/09/17 03:12:49;;;;;;;66.87;39.70;;;15.30;99.90;;;;;;5093043;28;20261;-78
2021/09/17 03:15:15;;;;;;;80.23;43.87;;;15.30;99.90;;;;;;5095440;28;20176;-79
2021/09/17 03:17:41;;;;;;;72.30;40.57;;;15.40;99.90;;;;;;5079198;28;20188;-78
2021/09/17 03:20:07;;;;;;;74.37;43.17;;;15.50;99.90;;;;;;5056104;28;20187;-79
2021/09/17 03:22:32;;;;;;;82.13;43.80;;;15.60;99.90;;;;;;5083469;28;20197;-78
2021/09/17 03:24:59;;;;;;;79.93;44.13;;;15.60;99.90;;;;;;5095905;28;20250;-78
2021/09/17 03:27:25;;;;;;;77.77;42.97;;;15.70;99.90;;;;;;5096771;28;20187;-78
2021/09/17 03:29:51;;;;;;;73.13;41.50;;;15.80;99.90;;;;;;5091385;28;20180;-78
2021/09/17 03:32:16;;;;;;;75.90;43.10;;;15.70;99.90;;;;;;5093707;28;20716;-77
2021/09/17 03:34:44;;;;;;;77.10;41.80;;;15.70;99.90;;;;;;5080487;28;20196;-78
2021/09/17 03:37:10;;;;;;;71.10;41.13;;;15.80;99.90;;;;;;5096127;28;20251;-79
2021/09/17 03:39:35;;;;;;;75.37;42.30;;;15.80;99.90;;;;;;5077663;28;20268;-77
2021/09/17 03:42:01;;;;;;;73.80;42.97;;;15.70;99.90;;;;;;5062478;28;20190;-78
2021/09/17 03:44:27;;;;;;;76.13;42.50;;;15.80;99.90;;;;;;5081942;28;20180;-78
2021/09/17 03:46:53;;;;;;;79.13;43.00;;;15.80;99.90;;;;;;5080386;28;20189;-78
2021/09/17 03:49:20;;;;;;;80.00;44.53;;;15.80;99.90;;;;;;5092504;28;20205;-78
2021/09/17 03:51:46;;;;;;;85.40;45.57;;;15.80;99.90;;;;;;5062072;28;20188;-77
2021/09/17 03:54:12;;;;;;;80.03;44.57;;;15.80;99.90;;;;;;5097378;28;20637;-79
2021/09/17 03:56:38;;;;;;;81.00;45.33;;;15.80;99.90;;;;;;5073962;28;20218;-78
2021/09/17 03:59:03;;;;;;;84.83;45.27;;;15.80;99.90;;;;;;5072662;28;20590;-78
2021/09/17 04:01:32;;;;;;;75.17;41.60;;;15.80;99.90;;;;;;5091327;28;20536;-78
2021/09/17 04:03:57;;;;;;;76.67;42.33;;;15.60;99.90;;;;;;5074790;28;20275;-79
2021/09/17 04:06:23;;;;;;;79.13;44.90;;;15.60;99.90;;;;;;5075333;28;20267;-78
2021/09/17 04:08:49;;;;;;;71.30;41.67;;;15.60;99.90;;;;;;5094889;28;20591;-78
2021/09/17 04:11:15;;;;;;;72.47;43.37;;;15.50;99.90;;;;;;5091416;28;20193;-77
2021/09/17 04:13:41;;;;;;;78.10;43.93;;;15.50;99.90;;;;;;5059454;28;20219;-78
2021/09/17 04:16:06;;;;;;;82.13;44.80;;;15.50;99.90;;;;;;5059995;28;20183;-78
2021/09/17 04:18:32;;;;;;;76.97;42.60;;;15.50;99.90;;;;;;5097276;28;20207;-77
2021/09/17 04:20:58;;;;;;;75.57;40.40;;;15.50;99.90;;;;;;5097111;28;20222;-79
2021/09/17 04:23:23;;;;;;;80.10;43.27;;;15.40;99.90;;;;;;5073851;28;20183;-78
2021/09/17 04:25:49;;;;;;;81.67;45.17;;;15.30;99.90;;;;;;5071997;28;20279;-78
2021/09/17 04:28:15;;;;;;;83.37;45.50;;;15.30;99.90;;;;;;5085835;28;20196;-78
2021/09/17 04:30:40;;;;;;;84.23;45.40;;;15.40;99.90;;;;;;5094040;28;20193;-77
2021/09/17 04:33:06;;;;;;;80.93;44.23;;;15.30;99.90;;;;;;5091062;28;20197;-78
2021/09/17 04:35:32;;;;;;;83.90;44.30;;;15.30;99.90;;;;;;5073355;28;20303;-78
2021/09/17 04:37:59;;;;;;;74.10;42.57;;;15.30;99.90;;;;;;5074956;28;20545;-78
2021/09/17 04:40:25;;;;;;;71.60;40.57;;;15.20;99.90;;;;;;5070077;28;20637;-78
2021/09/17 04:42:52;;;;;;;79.33;44.63;;;15.10;99.90;;;;;;5077365;28;20299;-78
2021/09/17 04:45:18;;;;;;;88.43;46.10;;;15.10;99.90;;;;;;5047275;28;20176;-78
2021/09/17 04:47:44;;;;;;;85.93;45.00;;;15.10;99.90;;;;;;5091596;28;20196;-78
2021/09/17 04:50:10;;;;;;;73.80;42.30;;;15.20;99.90;;;;;;5093032;28;20205;-78
2021/09/17 04:52:37;;;;;;;81.87;43.80;;;15.10;99.90;;;;;;5086905;28;20735;-77
2021/09/17 04:55:04;;;;;;;79.17;42.40;;;15.00;99.90;;;;;;5056178;28;20222;-78
2021/09/17 04:57:32;;;;;;;79.60;43.70;;;15.00;99.90;;;;;;5066794;28;20193;-77
2021/09/17 04:59:58;;;;;;;80.47;42.93;;;15.00;99.90;;;;;;5094230;28;20213;-79
2021/09/17 05:02:24;;;;;;;73.27;41.67;;;14.90;99.90;;;;;;5100706;28;20616;-78
2021/09/17 05:04:49;;;;;;;81.93;44.73;;;14.90;99.90;;;;;;5088623;28;20223;-77
2021/09/17 05:07:15;;;;;;;94.83;46.63;;;14.90;99.90;;;;;;5091551;28;20302;-78
2021/09/17 05:09:41;;;;;;;80.97;43.63;;;14.90;99.90;;;;;;5064923;28;20195;-78
2021/09/17 05:12:09;;;;;;;80.70;43.37;;;14.90;99.90;;;;;;5069979;28;20179;-78
2021/09/17 05:14:35;;;;;;;80.87;43.47;;;14.90;99.90;;;;;;5071494;28;20179;-78
2021/09/17 05:17:01;;;;;;;73.33;42.33;;;14.80;99.90;;;;;;5095143;28;20180;-78
2021/09/17 05:19:27;;;;;;;79.50;43.77;;;14.90;99.90;;;;;;5077377;28;20222;-79
2021/09/17 05:21:54;;;;;;;84.17;43.50;;;14.90;99.90;;;;;;5065855;28;20522;-78
2021/09/17 05:24:23;;;;;;;77.53;42.30;;;14.80;99.90;;;;;;5064368;28;20661;-78
2021/09/17 05:26:50;;;;;;;70.27;40.50;;;14.80;99.90;;;;;;5082418;28;20725;-78
2021/09/17 05:29:16;;;;;;;73.53;39.73;;;14.80;99.90;;;;;;5076988;28;20183;-78
2021/09/17 05:31:42;;;;;;;68.87;38.80;;;14.80;99.90;;;;;;5095862;28;20186;-78
2021/09/17 05:34:08;;;;;;;65.57;38.40;;;14.70;99.90;;;;;;5100059;28;20206;-78
2021/09/17 05:36:34;;;;;;;63.13;35.63;;;14.80;99.90;;;;;;5082724;28;20268;-78
2021/09/17 05:38:59;;;;;;;62.00;35.73;;;14.80;99.90;;;;;;5073432;28;20183;-78
2021/09/17 05:41:25;;;;;;;63.97;36.20;;;14.80;99.90;;;;;;5076369;28;20184;-77
2021/09/17 05:43:51;;;;;;;64.93;37.03;;;14.80;99.90;;;;;;5077334;28;20179;-78
2021/09/17 05:46:17;;;;;;;64.73;36.90;;;14.90;99.90;;;;;;5074434;28;20194;-78
2021/09/17 05:48:43;;;;;;;71.03;39.40;;;14.90;99.90;;;;;;5080161;28;20241;-77
2021/09/17 05:51:09;;;;;;;70.63;38.70;;;14.90;99.90;;;;;;5079378;28;20183;-77
2021/09/17 05:53:35;;;;;;;72.10;38.63;;;15.00;99.90;;;;;;5090776;28;20200;-82
2021/09/17 05:56:00;;;;;;;71.90;39.67;;;15.20;99.90;;;;;;5060618;28;20275;-77
2021/09/17 05:58:30;;;;;;;76.63;41.47;;;15.30;99.90;;;;;;5089282;28;20165;-77
2021/09/17 06:00:57;;;;;;;77.33;41.30;;;15.40;99.90;;;;;;5065145;28;20208;-77
2021/09/17 06:03:23;;;;;;;77.77;42.23;;;15.50;99.90;;;;;;5071485;28;20185;-76
2021/09/17 06:05:49;;;;;;;71.77;40.50;;;15.50;99.90;;;;;;5090896;28;20244;-76
2021/09/17 06:08:15;;;;;;;67.83;38.73;;;15.60;99.90;;;;;;5077252;28;20633;-78
2021/09/17 06:10:41;;;;;;;65.07;36.73;;;15.60;99.90;;;;;;5062081;28;20245;-77
2021/09/17 06:13:09;;;;;;;68.20;39.73;;;15.70;99.90;;;;;;5074158;28;20225;-78
2021/09/17 06:15:35;;;;;;;65.83;37.00;;;15.70;99.90;;;;;;5086341;28;20173;-76
2021/09/17 06:18:01;;;;;;;74.73;39.87;;;15.80;99.90;;;;;;5093837;28;20198;-77
2021/09/17 06:20:26;;;;;;;69.00;36.97;;;15.90;99.90;;;;;;5068687;28;20554;-77
2021/09/17 06:22:55;;;;;;;71.23;38.50;;;16.00;99.90;;;;;;5095674;28;20187;-78
2021/09/17 06:25:23;;;;;;;54.67;31.57;;;16.10;99.90;;;;;;5077359;28;20184;-77
2021/09/17 06:27:50;;;;;;;53.50;31.20;;;16.10;99.90;;;;;;5096229;28;20190;-77
2021/09/17 06:30:17;;;;;;;79.27;39.60;;;16.20;99.90;;;;;;5094186;28;20279;-77
2021/09/17 06:32:43;;;;;;;88.63;42.63;;;16.30;99.90;;;;;;5075909;28;20683;-77
2021/09/17 06:35:10;;;;;;;88.90;42.87;;;16.30;99.90;;;;;;5096353;28;20272;-77
2021/09/17 06:37:47;;;;;;;95.13;43.97;;;16.40;99.90;;;;;;5089005;28;20263;-77
2021/09/17 06:40:13;;;;;;;95.53;42.93;;;16.60;99.90;;;;;;5076880;28;20285;-77
2021/09/17 06:42:39;;;;;;;98.13;43.77;;;16.70;99.90;;;;;;5058175;28;20191;-78
2021/09/17 06:45:07;;;;;;;106.67;46.33;;;16.80;99.90;;;;;;5096967;28;20187;-77
2021/09/17 06:47:42;;;;;;;125.20;49.10;;;17.00;99.90;;;;;;5078610;28;20260;-78
2021/09/17 06:50:08;;;;;;;132.50;53.47;;;17.10;99.90;;;;;;5099233;28;20314;-78
2021/09/17 06:52:33;;;;;;;128.10;52.77;;;17.20;99.90;;;;;;5094775;28;20199;-78
2021/09/17 06:54:59;;;;;;;135.37;52.40;;;17.20;99.90;;;;;;5085394;28;20187;-78
2021/09/17 06:57:25;;;;;;;146.80;54.00;;;17.20;99.90;;;;;;5081748;28;20192;-77
2021/09/17 06:59:50;;;;;;;135.73;52.77;;;17.20;99.90;;;;;;5093876;28;20212;-78
2021/09/17 07:02:16;;;;;;;150.87;53.00;;;17.30;99.90;;;;;;5093795;28;20188;-78
2021/09/17 07:04:42;;;;;;;132.80;52.03;;;17.30;99.90;;;;;;5097889;28;20186;-78
2021/09/17 07:07:07;;;;;;;120.07;52.83;;;17.30;99.90;;;;;;5086609;28;20312;-77
2021/09/17 07:09:33;;;;;;;120.63;51.27;;;17.40;99.90;;;;;;5093423;28;21778;-78
2021/09/17 07:11:59;;;;;;;123.93;52.83;;;17.40;99.90;;;;;;5077571;28;20651;-77
2021/09/17 07:14:25;;;;;;;118.77;50.70;;;17.50;99.90;;;;;;5064760;28;20214;-78
2021/09/17 07:16:50;;;;;;;111.47;49.93;;;17.70;99.90;;;;;;5075629;28;20214;-77
2021/09/17 07:19:16;;;;;;;112.03;50.03;;;17.70;99.90;;;;;;5095720;28;20179;-78
2021/09/17 07:21:42;;;;;;;118.23;51.63;;;17.80;99.90;;;;;;5096285;28;20178;-78
2021/09/17 07:24:07;;;;;;;120.53;50.43;;;17.90;99.90;;;;;;5075369;28;20186;-77
2021/09/17 07:26:33;;;;;;;105.57;48.70;;;18.00;99.90;;;;;;5075504;28;20552;-77
2021/09/17 07:28:59;;;;;;;114.30;51.10;;;18.10;99.90;;;;;;5060430;28;20266;-77
2021/09/17 07:31:25;;;;;;;111.43;51.57;;;18.10;99.90;;;;;;5074375;28;20190;-78
2021/09/17 07:33:50;;;;;;;109.70;51.13;;;18.20;99.90;;;;;;5079639;28;20214;-78
2021/09/17 07:36:16;;;;;;;105.07;48.93;;;18.30;99.90;;;;;;5091389;28;20186;-77
2021/09/17 07:38:44;;;;;;;101.93;48.77;;;18.40;99.90;;;;;;5096655;28;20586;-77
2021/09/17 07:41:10;;;;;;;106.60;50.57;;;18.50;99.90;;;;;;5071428;28;20724;-78
2021/09/17 07:43:36;;;;;;;102.50;48.53;;;18.60;99.90;;;;;;5087787;28;20262;-77
2021/09/17 07:46:02;;;;;;;103.50;48.87;;;18.50;99.90;;;;;;5092280;28;20212;-78
2021/09/17 07:48:27;;;;;;;99.47;49.67;;;18.50;99.90;;;;;;5088223;28;20179;-77
2021/09/17 07:50:53;;;;;;;92.07;46.57;;;18.60;99.90;;;;;;5072130;28;20183;-78
2021/09/17 07:53:19;;;;;;;97.50;48.10;;;18.70;99.90;;;;;;5076842;28;20260;-78
2021/09/17 07:55:44;;;;;;;95.07;47.83;;;18.80;99.90;;;;;;5074818;28;20179;-77
2021/09/17 07:58:11;;;;;;;94.03;48.13;;;18.90;99.90;;;;;;5092574;28;20278;-78
2021/09/17 08:00:37;;;;;;;95.37;48.63;;;19.00;99.90;;;;;;5087667;28;20267;-77
2021/09/17 08:03:04;;;;;;;102.57;50.87;;;19.10;99.90;;;;;;5084450;28;20209;-77
2021/09/17 08:05:30;;;;;;;102.33;51.70;;;19.10;99.90;;;;;;5091964;28;20251;-78
2021/09/17 08:07:56;;;;;;;102.87;48.67;;;19.30;99.90;;;;;;5076879;28;20687;-78
2021/09/17 08:10:21;;;;;;;94.40;47.10;;;19.50;99.90;;;;;;5074362;28;20193;-78
2021/09/17 08:12:47;;;;;;;94.57;47.40;;;19.60;99.90;;;;;;5089274;28;20244;-78
2021/09/17 08:15:14;;;;;;;98.33;47.20;;;19.80;99.90;;;;;;5089014;28;20645;-77
2021/09/17 08:17:39;;;;;;;94.47;47.20;;;20.00;99.90;;;;;;5093115;28;20181;-78
2021/09/17 08:20:07;;;;;;;98.03;47.87;;;19.80;99.90;;;;;;5072018;28;20233;-78
2021/09/17 08:22:33;;;;;;;95.67;48.13;;;19.80;99.90;;;;;;5075276;28;20223;-77
2021/09/17 08:24:58;;;;;;;95.97;46.97;;;20.00;99.90;;;;;;5070659;28;20268;-77
2021/09/17 08:27:25;;;;;;;94.47;47.17;;;20.40;99.90;;;;;;5071737;28;20868;-76
2021/09/17 08:29:51;;;;;;;90.17;45.97;;;21.00;99.90;;;;;;5091269;28;20189;-77
2021/09/17 08:32:18;;;;;;;91.10;46.60;;;21.20;99.90;;;;;;5093700;28;20260;-77
2021/09/17 08:34:44;;;;;;;88.33;48.33;;;21.70;99.90;;;;;;5091006;28;20709;-76
2021/09/17 08:37:10;;;;;;;77.63;44.23;;;23.20;99.90;;;;;;5083353;28;20185;-79
2021/09/17 08:39:38;;;;;;;75.73;41.33;;;24.50;99.90;;;;;;5054376;28;20186;-79
2021/09/17 08:42:07;;;;;;;71.20;38.17;;;25.90;99.90;;;;;;5071867;28;20682;-79
2021/09/17 08:44:34;;;;;;;61.83;37.37;;;26.90;99.90;;;;;;5097595;28;20174;-79
2021/09/17 08:47:02;;;;;;;61.60;39.13;;;28.10;99.90;;;;;;5074322;28;20263;-79
2021/09/17 08:49:29;;;;;;;62.40;37.97;;;29.20;99.90;;;;;;5086458;28;20210;-79
2021/09/17 08:51:55;;;;;;;58.75;36.65;;;30.20;99.90;;;;;;5096238;28;20303;-79
2021/09/17 08:54:21;;;;;;;57.67;37.42;;;31.30;99.90;;;;;;5093543;28;20694;-79
2021/09/17 08:56:47;;;;;;;57.83;37.53;;;32.30;99.90;;;;;;5071730;28;20187;-79
2021/09/17 08:59:13;;;;;;;48.97;34.08;;;32.80;99.90;;;;;;5095366;28;20205;-79
2021/09/17 09:01:38;;;;;;;49.15;32.63;;;33.00;99.90;;;;;;5056024;28;20506;-79
2021/09/17 09:04:07;;;;;;;53.20;35.88;;;33.10;99.90;;;;;;5085972;28;21013;-80
2021/09/17 09:06:39;;;;;;;48.33;33.80;;;33.40;99.90;;;;;;5070043;28;20253;-79
2021/09/17 09:09:17;;;;;;;51.42;34.67;;;33.20;99.90;;;;;;5068850;28;20234;-80
2021/09/17 09:11:50;;;;;;;54.28;37.10;;;32.00;99.90;;;;;;5094070;28;20265;-80
2021/09/17 09:14:16;;;;;;;51.22;36.38;;;30.50;99.90;;;;;;5062368;28;20207;-76
2021/09/17 09:16:45;;;;;;;53.10;36.40;;;29.10;99.90;;;;;;5093275;28;20902;-77
2021/09/17 09:19:17;;;;;;;54.65;37.88;;;27.90;99.90;;;;;;5071627;28;20524;-79
2021/09/17 09:21:42;;;;;;;57.30;37.53;;;26.90;99.90;;;;;;5068472;28;20607;-79
2021/09/17 09:24:26;;;;;;;57.95;39.00;;;26.20;99.90;;;;;;5073470;28;20278;-79
2021/09/17 09:27:16;;;;;;;59.93;40.93;;;25.40;99.90;;;;;;5099656;28;20269;-79
2021/09/17 09:29:44;;;;;;;62.00;40.60;;;25.00;99.90;;;;;;5073993;28;20190;-79
2021/09/17 09:32:25;;;;;;;61.67;41.73;;;24.60;99.90;;;;;;5067788;28;20347;-79
2021/09/17 09:34:54;;;;;;;65.60;43.07;;;24.30;99.90;;;;;;5092469;28;20282;-78
2021/09/17 09:37:23;;;;;;;64.07;41.50;;;24.10;99.90;;;;;;5096506;28;20178;-79
2021/09/17 09:39:49;;;;;;;62.67;40.10;;;23.90;99.90;;;;;;5099262;28;20274;-79
2021/09/17 09:42:19;;;;;;;61.73;38.67;;;23.70;99.90;;;;;;5091677;28;20179;-79
2021/09/17 09:45:07;;;;;;;63.87;40.43;;;23.60;99.90;;;;;;5061749;28;20168;-78
2021/09/17 09:47:35;;;;;;;58.60;36.97;;;23.90;99.90;;;;;;5086424;28;20266;-78
2021/09/17 09:50:12;;;;;;;54.93;35.47;;;25.80;99.90;;;;;;5062074;28;20203;-79
2021/09/17 09:52:38;;;;;;;53.97;35.10;;;27.90;99.90;;;;;;5078979;28;20210;-78
2021/09/17 09:55:08;;;;;;;47.95;31.48;;;30.20;99.90;;;;;;5068824;28;20175;-79
2021/09/17 09:57:33;;;;;;;47.05;32.72;;;31.60;99.90;;;;;;5090857;28;20193;-78
2021/09/17 10:00:03;;;;;;;45.80;32.83;;;33.00;99.90;;;;;;5089306;28;20195;-76
2021/09/17 10:02:39;;;;;;;44.35;31.08;;;34.00;99.90;;;;;;5085007;28;20180;-78
2021/09/17 10:05:07;;;;;;;41.53;28.58;;;34.90;96.30;;;;;;5091046;28;20271;-77
2021/09/17 10:07:34;;;;;;;39.90;28.30;;;35.40;95.40;;;;;;5069261;28;20273;-79
2021/09/17 10:10:01;;;;;;;43.75;31.30;;;35.20;93.00;;;;;;5072109;28;20227;-78
2021/09/17 10:12:27;;;;;;;35.17;24.73;;;34.20;93.40;;;;;;5098137;28;20187;-80
2021/09/17 10:14:55;;;;;;;38.75;27.58;;;33.00;93.70;;;;;;5070894;28;20171;-78
2021/09/17 10:17:25;;;;;;;37.00;24.13;;;32.50;94.90;;;;;;5080136;28;20188;-78
2021/09/17 10:19:52;;;;;;;35.30;25.55;;;32.70;94.30;;;;;;5087784;28;20202;-78
2021/09/17 10:22:33;;;;;;;38.55;25.67;;;33.10;92.10;;;;;;5100961;28;20181;-78
2021/09/17 10:25:05;;;;;;;36.95;25.13;;;32.80;92.90;;;;;;5097427;28;20186;-78
2021/09/17 10:27:31;;;;;;;34.63;24.55;;;32.70;94.00;;;;;;5077099;28;20214;-80
2021/09/17 10:30:00;;;;;;;29.20;19.30;;;32.90;92.60;;;;;;5080321;28;20215;-78
2021/09/17 10:32:37;;;;;;;26.02;18.10;;;31.50;93.20;;;;;;5069545;28;20183;-79
2021/09/17 10:35:12;;;;;;;27.38;17.98;;;30.10;95.10;;;;;;5095707;28;20213;-79
2021/09/17 10:37:52;;;;;;;24.88;16.65;;;29.10;97.50;;;;;;5076616;28;20206;-79
2021/09/17 10:40:31;;;;;;;23.52;16.05;;;28.20;98.80;;;;;;5088124;28;20187;-80
2021/09/17 10:43:09;;;;;;;26.08;17.60;;;27.70;99.90;;;;;;5074850;28;20278;-79
2021/09/17 10:45:43;;;;;;;24.00;15.00;;;27.20;99.90;;;;;;5081860;28;20660;-79
2021/09/17 10:48:17;;;;;;;24.02;14.27;;;26.70;99.90;;;;;;5078325;28;20190;-79
2021/09/17 10:50:49;;;;;;;22.02;13.85;;;26.30;99.90;;;;;;5058936;28;20210;-79
2021/09/17 10:53:41;;;;;;;25.33;15.52;;;26.10;99.90;;;;;;5077897;28;20678;-79
2021/09/17 10:56:11;;;;;;;27.92;15.68;;;25.80;99.90;;;;;;5079329;28;20178;-77
2021/09/17 10:58:45;;;;;;;24.30;14.63;;;25.60;99.90;;;;;;5060552;28;20215;-80
2021/09/17 11:01:18;;;;;;;23.88;15.32;;;25.50;99.90;;;;;;5088477;28;20192;-80
2021/09/17 11:03:47;;;;;;;24.90;15.38;;;25.40;99.90;;;;;;5076198;28;20196;-79
2021/09/17 11:08:53;;;;;;;21.15;13.10;;;25.50;99.90;;;;;;5064498;28;20243;-76
2021/09/17 11:11:23;;;;;;;20.20;13.38;;;25.40;99.90;;;;;;5060212;28;20666;-76
2021/09/17 11:13:49;;;;;;;21.23;14.70;;;25.30;99.90;;;;;;5072517;28;20251;-77
2021/09/17 11:16:16;;;;;;;24.00;14.80;;;25.20;99.90;;;;;;5089780;28;20176;-76
2021/09/17 11:19:02;;;;;;;22.05;12.95;;;24.90;99.90;;;;;;5090108;28;20184;-76
2021/09/17 11:21:31;;;;;;;22.43;14.27;;;24.80;99.90;;;;;;5085916;28;20183;-76
2021/09/17 11:23:57;;;;;;;22.13;13.77;;;24.10;99.90;;;;;;5074336;28;20174;-76
2021/09/17 11:26:32;;;;;;;22.13;13.57;;;24.10;99.90;;;;;;5092759;28;20653;-76
2021/09/17 11:29:09;;;;;;;18.90;11.13;;;24.20;99.90;;;;;;5089668;28;20640;-76
2021/09/17 11:31:43;;;;;;;16.60;10.83;;;24.10;99.90;;;;;;5071074;28;20209;-76
2021/09/17 11:34:11;;;;;;;20.03;11.80;;;24.40;99.90;;;;;;5073691;28;20214;-76
2021/09/17 11:36:50;;;;;;;17.63;9.83;;;24.60;99.90;;;;;;5093611;28;20171;-76
2021/09/17 11:39:28;;;;;;;17.83;9.90;;;24.80;99.90;;;;;;5090800;28;20187;-76
2021/09/17 11:42:14;;;;;;;19.47;10.60;;;25.00;99.90;;;;;;5090487;28;20587;-76
2021/09/17 11:44:49;;;;;;;16.30;10.40;;;25.00;99.90;;;;;;5089321;28;20183;-76
2021/09/17 11:47:26;;;;;;;16.20;10.27;;;25.10;99.90;;;;;;5075382;28;20555;-76
2021/09/17 11:50:01;;;;;;;17.83;10.80;;;24.60;99.90;;;;;;5075062;28;20188;-76
2021/09/17 11:52:27;;;;;;;17.97;9.63;;;24.30;99.90;;;;;;5085772;28;20233;-76
2021/09/17 11:55:00;;;;;;;17.53;10.20;;;23.90;99.90;;;;;;5074258;28;20191;-76
2021/09/17 11:57:47;;;;;;;16.73;9.70;;;23.90;99.90;;;;;;5075048;28;20190;-76
2021/09/17 12:00:23;;;;;;;17.53;10.57;;;24.20;99.90;;;;;;5086145;28;20179;-76
2021/09/17 12:02:53;;;;;;;18.53;10.80;;;24.40;99.90;;;;;;5074681;28;20194;-76
2021/09/17 12:05:27;;;;;;;16.30;9.20;;;24.60;99.90;;;;;;5084057;28;20190;-77
2021/09/17 12:07:53;;;;;;;16.57;10.43;;;24.90;99.90;;;;;;5070438;28;20230;-76
2021/09/17 12:10:28;;;;;;;17.43;10.43;;;25.00;99.90;;;;;;5071752;28;20213;-76
2021/09/17 12:13:10;;;;;;;17.30;10.30;;;25.10;99.90;;;;;;5073941;28;20206;-76
2021/09/17 12:15:39;;;;;;;14.97;9.17;;;25.20;99.90;;;;;;5072060;28;20226;-76
2021/09/17 12:18:10;;;;;;;17.43;9.63;;;25.00;99.90;;;;;;5071977;28;20191;-76
2021/09/17 12:20:49;;;;;;;16.50;9.43;;;24.60;99.90;;;;;;5086749;28;20281;-76
2021/09/17 12:23:17;;;;;;;14.80;8.30;;;24.80;99.90;;;;;;5075006;28;20676;-77
2021/09/17 12:25:44;;;;;;;15.23;9.30;;;25.40;99.90;;;;;;5070487;28;20210;-76
2021/09/17 12:28:13;;;;;;;12.90;7.55;;;26.00;99.90;;;;;;5082767;28;20214;-76
2021/09/17 12:30:39;;;;;;;14.13;8.23;;;26.30;99.90;;;;;;5088383;28;20188;-77